sensor_id;sensor_type;location;lat;lon;timestamp;temperature;humidity
20504;DHT22;10410;51.046;6.980;2024-03-23T00:59:33;7.70;99.90
20504;DHT22;10410;51.046;6.980;2024-03-23T01:06:33;7.70;99.90
20504;DHT22;10410;51.046;6.980;2024-03-23T01:13:32;7.70;99.90
20504;DHT22;10410;51.046;6.980;2024-03-23T01:20:32;7.40;99.90
20504;DHT22;10410;51.046;6.980;2024-03-23T01:27:32;7.20;99.90
20504;DHT22;10410;51.046;6.980;2024-03-23T01:34:32;7.10;99.90
20504;DHT22;10410;51.046;6.980;2024-03-23T01:41:31;7.10;99.90
20504;DHT22;10410;51.046;6.980;2024-03-23T01:48:31;6.90;99.90
20504;DHT22;10410;51.046;6.980;2024-03-23T01:55:32;6.80;99.90
20504;DHT22;10410;51.046;6.980;2024-03-23T02:02:31;6.80;99.90
20504;DHT22;10410;51.046;6.980;2024-03-23T02:09:31;6.80;99.90
20504;DHT22;10410;51.046;6.980;2024-03-23T02:16:31;6.70;99.90
20504;DHT22;10410;51.046;6.980;2024-03-23T02:23:30;6.70;99.90
20504;DHT22;10410;51.046;6.980;2024-03-23T02:30:30;6.60;99.90
20504;DHT22;10410;51.046;6.980;2024-03-23T02:37:29;6.50;99.90
20504;DHT22;10410;51.046;6.980;2024-03-23T02:44:29;6.30;99.90
20504;DHT22;10410;51.046;6.980;2024-03-23T02:51:29;6.20;99.90
20504;DHT22;10410;51.046;6.980;2024-03-23T02:58:28;6.10;99.90
20504;DHT22;10410;51.046;6.980;2024-03-23T03:05:28;6.00;99.90
20504;DHT22;10410;51.046;6.980;2024-03-23T03:12:28;6.00;99.90
20504;DHT22;10410;51.046;6.980;2024-03-23T03:19:28;6.00;99.90
20504;DHT22;10410;51.046;6.980;2024-03-23T03:26:27;6.00;99.90
20504;DHT22;10410;51.046;6.980;2024-03-23T03:33:27;5.90;99.90
20504;DHT22;10410;51.046;6.980;2024-03-23T03:40:27;5.90;99.90
20504;DHT22;10410;51.046;6.980;2024-03-23T03:47:26;5.90;99.90
20504;DHT22;10410;51.046;6.980;2024-03-23T03:54:26;5.90;99.90
20504;DHT22;10410;51.046;6.980;2024-03-23T04:01:25;6.00;99.90
20504;DHT22;10410;51.046;6.980;2024-03-23T04:08:25;6.00;99.90
20504;DHT22;10410;51.046;6.980;2024-03-23T04:15:25;5.90;99.90
20504;DHT22;10410;51.046;6.980;2024-03-23T04:22:25;5.90;99.90
20504;DHT22;10410;51.046;6.980;2024-03-23T04:29:25;5.80;99.90
20504;DHT22;10410;51.046;6.980;2024-03-23T04:36:26;5.80;99.90
20504;DHT22;10410;51.046;6.980;2024-03-23T04:43:26;5.80;99.90
20504;DHT22;10410;51.046;6.980;2024-03-23T04:50:25;5.80;99.90
20504;DHT22;10410;51.046;6.980;2024-03-23T04:57:25;5.90;99.90
20504;DHT22;10410;51.046;6.980;2024-03-23T05:04:25;6.00;99.90
20504;DHT22;10410;51.046;6.980;2024-03-23T05:11:24;5.90;99.90
20504;DHT22;10410;51.046;6.980;2024-03-23T05:18:24;5.90;99.90
20504;DHT22;10410;51.046;6.980;2024-03-23T05:25:26;5.90;99.90
20504;DHT22;10410;51.046;6.980;2024-03-23T05:32:25;5.90;99.90
20504;DHT22;10410;51.046;6.980;2024-03-23T05:39:25;5.90;99.90
20504;DHT22;10410;51.046;6.980;2024-03-23T05:46:25;5.90;99.90
20504;DHT22;10410;51.046;6.980;2024-03-23T05:53:24;5.90;99.90
20504;DHT22;10410;51.046;6.980;2024-03-23T06:00:24;5.90;99.90
20504;DHT22;10410;51.046;6.980;2024-03-23T06:07:26;5.90;99.90
20504;DHT22;10410;51.046;6.980;2024-03-23T06:14:25;5.90;99.90
20504;DHT22;10410;51.046;6.980;2024-03-23T06:21:25;5.90;99.90
20504;DHT22;10410;51.046;6.980;2024-03-23T06:28:25;6.00;99.90
20504;DHT22;10410;51.046;6.980;2024-03-23T06:35:24;6.00;99.90
20504;DHT22;10410;51.046;6.980;2024-03-23T06:42:24;6.00;99.90
20504;DHT22;10410;51.046;6.980;2024-03-23T06:49:23;6.10;99.90
20504;DHT22;10410;51.046;6.980;2024-03-23T06:56:23;6.10;99.90
20504;DHT22;10410;51.046;6.980;2024-03-23T07:03:23;6.00;99.90
20504;DHT22;10410;51.046;6.980;2024-03-23T07:10:23;6.00;99.90
20504;DHT22;10410;51.046;6.980;2024-03-23T07:17:23;6.00;99.90
20504;DHT22;10410;51.046;6.980;2024-03-23T07:24:23;6.10;99.90
20504;DHT22;10410;51.046;6.980;2024-03-23T07:31:22;6.20;99.90
20504;DHT22;10410;51.046;6.980;2024-03-23T07:38:23;6.30;99.90
20504;DHT22;10410;51.046;6.980;2024-03-23T07:45:22;6.50;99.90
20504;DHT22;10410;51.046;6.980;2024-03-23T07:52:22;6.70;99.90
20504;DHT22;10410;51.046;6.980;2024-03-23T07:59:22;6.80;99.90
20504;DHT22;10410;51.046;6.980;2024-03-23T08:06:22;7.00;99.90
20504;DHT22;10410;51.046;6.980;2024-03-23T08:13:24;7.10;99.90
20504;DHT22;10410;51.046;6.980;2024-03-23T08:20:24;7.20;99.90
20504;DHT22;10410;51.046;6.980;2024-03-23T08:27:24;7.40;99.90
20504;DHT22;10410;51.046;6.980;2024-03-23T08:34:23;7.60;99.90
20504;DHT22;10410;51.046;6.980;2024-03-23T08:41:23;7.80;99.90
20504;DHT22;10410;51.046;6.980;2024-03-23T08:48:22;7.90;99.90
20504;DHT22;10410;51.046;6.980;2024-03-23T08:55:22;8.10;99.90
20504;DHT22;10410;51.046;6.980;2024-03-23T09:02:22;8.40;99.90
20504;DHT22;10410;51.046;6.980;2024-03-23T09:09:21;8.50;99.90
20504;DHT22;10410;51.046;6.980;2024-03-23T09:16:21;8.50;99.90
20504;DHT22;10410;51.046;6.980;2024-03-23T09:23:21;8.50;99.90
20504;DHT22;10410;51.046;6.980;2024-03-23T09:30:21;8.70;99.90
20504;DHT22;10410;51.046;6.980;2024-03-23T09:37:20;8.60;99.90
20504;DHT22;10410;51.046;6.980;2024-03-23T09:44:20;8.70;99.90
20504;DHT22;10410;51.046;6.980;2024-03-23T09:51:20;8.80;99.90
20504;DHT22;10410;51.046;6.980;2024-03-23T09:58:19;8.90;99.90
20504;DHT22;10410;51.046;6.980;2024-03-23T10:05:23;8.70;99.90
20504;DHT22;10410;51.046;6.980;2024-03-23T10:12:23;8.80;99.90
20504;DHT22;10410;51.046;6.980;2024-03-23T10:19:32;9.00;99.90
20504;DHT22;10410;51.046;6.980;2024-03-23T10:26:32;9.20;99.90
20504;DHT22;10410;51.046;6.980;2024-03-23T10:33:32;9.40;99.90
20504;DHT22;10410;51.046;6.980;2024-03-23T10:40:34;9.20;99.90
20504;DHT22;10410;51.046;6.980;2024-03-23T10:47:36;9.00;99.90
20504;DHT22;10410;51.046;6.980;2024-03-23T10:54:36;8.50;99.90
20504;DHT22;10410;51.046;6.980;2024-03-23T11:02:00;8.30;99.90
20504;DHT22;10410;51.046;6.980;2024-03-23T11:09:02;8.20;99.90
20504;DHT22;10410;51.046;6.980;2024-03-23T11:16:16;7.90;99.90
20504;DHT22;10410;51.046;6.980;2024-03-23T11:23:28;7.70;99.90
20504;DHT22;10410;51.046;6.980;2024-03-23T11:30:28;7.30;99.90
20504;DHT22;10410;51.046;6.980;2024-03-23T11:37:31;6.80;99.90
20504;DHT22;10410;51.046;6.980;2024-03-23T11:44:30;6.70;99.90
20504;DHT22;10410;51.046;6.980;2024-03-23T11:51:30;7.20;99.90
20504;DHT22;10410;51.046;6.980;2024-03-23T11:58:35;7.70;99.90
20504;DHT22;10410;51.046;6.980;2024-03-23T12:05:34;8.00;99.90
20504;DHT22;10410;51.046;6.980;2024-03-23T12:12:34;8.30;99.90
20504;DHT22;10410;51.046;6.980;2024-03-23T12:19:34;8.70;99.90
20504;DHT22;10410;51.046;6.980;2024-03-23T12:26:33;8.90;99.90
20504;DHT22;10410;51.046;6.980;2024-03-23T12:33:33;8.60;99.90
20504;DHT22;10410;51.046;6.980;2024-03-23T12:40:33;8.20;99.90
20504;DHT22;10410;51.046;6.980;2024-03-23T12:47:33;7.50;99.90
20504;DHT22;10410;51.046;6.980;2024-03-23T12:54:32;6.50;99.90
20504;DHT22;10410;51.046;6.980;2024-03-23T13:01:32;5.50;99.90
20504;DHT22;10410;51.046;6.980;2024-03-23T13:08:32;5.50;99.90
20504;DHT22;10410;51.046;6.980;2024-03-23T13:15:31;6.10;99.90
20504;DHT22;10410;51.046;6.980;2024-03-23T13:22:31;6.80;99.90
20504;DHT22;10410;51.046;6.980;2024-03-23T13:29:31;7.50;99.90
20504;DHT22;10410;51.046;6.980;2024-03-23T13:36:30;8.10;99.90
20504;DHT22;10410;51.046;6.980;2024-03-23T13:43:30;8.70;99.90
20504;DHT22;10410;51.046;6.980;2024-03-23T13:50:30;9.00;99.90
20504;DHT22;10410;51.046;6.980;2024-03-23T13:57:29;9.00;99.90
20504;DHT22;10410;51.046;6.980;2024-03-23T14:04:29;9.30;99.90
20504;DHT22;10410;51.046;6.980;2024-03-23T14:11:29;9.10;99.90
20504;DHT22;10410;51.046;6.980;2024-03-23T14:18:28;8.80;99.90
20504;DHT22;10410;51.046;6.980;2024-03-23T14:25:28;8.60;99.90
20504;DHT22;10410;51.046;6.980;2024-03-23T14:32:28;8.90;99.90
20504;DHT22;10410;51.046;6.980;2024-03-23T14:39:30;9.80;99.90
20504;DHT22;10410;51.046;6.980;2024-03-23T14:46:30;10.10;99.90
20504;DHT22;10410;51.046;6.980;2024-03-23T14:53:30;9.60;99.90
20504;DHT22;10410;51.046;6.980;2024-03-23T15:00:29;9.10;99.90
20504;DHT22;10410;51.046;6.980;2024-03-23T15:07:29;8.50;99.90
20504;DHT22;10410;51.046;6.980;2024-03-23T15:14:29;8.20;99.90
20504;DHT22;10410;51.046;6.980;2024-03-23T15:21:29;7.90;99.90
20504;DHT22;10410;51.046;6.980;2024-03-23T15:28:29;7.80;99.90
20504;DHT22;10410;51.046;6.980;2024-03-23T15:35:52;8.20;99.90
20504;DHT22;10410;51.046;6.980;2024-03-23T15:42:52;8.70;99.90
20504;DHT22;10410;51.046;6.980;2024-03-23T15:49:52;9.30;99.90
20504;DHT22;10410;51.046;6.980;2024-03-23T15:56:54;9.40;99.90
20504;DHT22;10410;51.046;6.980;2024-03-23T16:03:54;8.80;99.90
20504;DHT22;10410;51.046;6.980;2024-03-23T16:10:54;8.40;99.90
20504;DHT22;10410;51.046;6.980;2024-03-23T16:17:54;8.20;99.90
20504;DHT22;10410;51.046;6.980;2024-03-23T16:24:53;8.00;99.90
20504;DHT22;10410;51.046;6.980;2024-03-23T16:31:53;8.00;99.90
20504;DHT22;10410;51.046;6.980;2024-03-23T16:38:54;8.00;99.90
20504;DHT22;10410;51.046;6.980;2024-03-23T16:46:00;8.10;99.90
20504;DHT22;10410;51.046;6.980;2024-03-23T16:52:59;8.40;99.90
20504;DHT22;10410;51.046;6.980;2024-03-23T16:59:59;8.30;99.90
20504;DHT22;10410;51.046;6.980;2024-03-23T17:06:59;7.90;99.90
20504;DHT22;10410;51.046;6.980;2024-03-23T17:13:58;7.60;99.90
20504;DHT22;10410;51.046;6.980;2024-03-23T17:20:58;7.30;99.90
20504;DHT22;10410;51.046;6.980;2024-03-23T17:27:58;7.20;99.90
20504;DHT22;10410;51.046;6.980;2024-03-23T17:34:57;7.00;99.90
20504;DHT22;10410;51.046;6.980;2024-03-23T17:41:57;7.00;99.90
20504;DHT22;10410;51.046;6.980;2024-03-23T17:48:57;7.00;99.90
20504;DHT22;10410;51.046;6.980;2024-03-23T17:56:03;7.00;99.90
20504;DHT22;10410;51.046;6.980;2024-03-23T18:03:03;6.90;99.90
20504;DHT22;10410;51.046;6.980;2024-03-23T18:10:03;6.80;99.90
20504;DHT22;10410;51.046;6.980;2024-03-23T18:17:03;6.70;99.90
20504;DHT22;10410;51.046;6.980;2024-03-23T18:24:02;6.50;99.90
20504;DHT22;10410;51.046;6.980;2024-03-23T18:31:04;6.50;99.90
20504;DHT22;10410;51.046;6.980;2024-03-23T18:38:04;6.40;99.90
20504;DHT22;10410;51.046;6.980;2024-03-23T18:45:04;6.30;99.90
20504;DHT22;10410;51.046;6.980;2024-03-23T18:52:03;6.30;99.90
20504;DHT22;10410;51.046;6.980;2024-03-23T18:59:03;6.20;99.90
20504;DHT22;10410;51.046;6.980;2024-03-23T19:06:03;6.10;99.90
20504;DHT22;10410;51.046;6.980;2024-03-23T19:13:03;6.00;99.90
20504;DHT22;10410;51.046;6.980;2024-03-23T19:20:02;5.90;99.90
20504;DHT22;10410;51.046;6.980;2024-03-23T19:27:05;5.80;99.90
20504;DHT22;10410;51.046;6.980;2024-03-23T19:34:05;5.60;99.90
20504;DHT22;10410;51.046;6.980;2024-03-23T19:41:04;5.50;99.90
20504;DHT22;10410;51.046;6.980;2024-03-23T19:48:04;5.40;99.90
20504;DHT22;10410;51.046;6.980;2024-03-23T19:55:06;5.30;99.90
20504;DHT22;10410;51.046;6.980;2024-03-23T20:02:06;5.20;99.90
20504;DHT22;10410;51.046;6.980;2024-03-23T20:09:06;5.10;99.90
20504;DHT22;10410;51.046;6.980;2024-03-23T20:16:06;5.10;99.90
20504;DHT22;10410;51.046;6.980;2024-03-23T20:23:06;5.20;99.90
20504;DHT22;10410;51.046;6.980;2024-03-23T20:30:06;5.30;99.90
20504;DHT22;10410;51.046;6.980;2024-03-23T20:37:10;5.30;99.90
20504;DHT22;10410;51.046;6.980;2024-03-23T20:44:10;5.40;99.90
20504;DHT22;10410;51.046;6.980;2024-03-23T20:51:10;5.50;99.90
20504;DHT22;10410;51.046;6.980;2024-03-23T20:58:10;5.50;99.90
20504;DHT22;10410;51.046;6.980;2024-03-23T21:05:09;5.50;99.90
20504;DHT22;10410;51.046;6.980;2024-03-23T21:12:09;5.50;99.90
20504;DHT22;10410;51.046;6.980;2024-03-23T21:19:09;5.50;99.90
20504;DHT22;10410;51.046;6.980;2024-03-23T21:26:08;5.50;99.90
20504;DHT22;10410;51.046;6.980;2024-03-23T21:33:08;5.40;99.90
20504;DHT22;10410;51.046;6.980;2024-03-23T21:40:08;5.40;99.90
20504;DHT22;10410;51.046;6.980;2024-03-23T21:47:11;5.30;99.90
20504;DHT22;10410;51.046;6.980;2024-03-23T21:54:10;5.20;99.90
20504;DHT22;10410;51.046;6.980;2024-03-23T22:01:10;5.20;99.90
20504;DHT22;10410;51.046;6.980;2024-03-23T22:08:10;5.20;99.90
20504;DHT22;10410;51.046;6.980;2024-03-23T22:15:10;5.20;99.90
20504;DHT22;10410;51.046;6.980;2024-03-23T22:22:09;5.20;99.90
20504;DHT22;10410;51.046;6.980;2024-03-23T22:29:09;5.20;99.90
20504;DHT22;10410;51.046;6.980;2024-03-23T22:36:08;5.20;99.90
20504;DHT22;10410;51.046;6.980;2024-03-23T22:43:08;5.20;99.90
20504;DHT22;10410;51.046;6.980;2024-03-23T22:50:08;5.20;99.90
20504;DHT22;10410;51.046;6.980;2024-03-23T22:57:09;5.20;99.90
20504;DHT22;10410;51.046;6.980;2024-03-23T23:04:09;5.10;99.90
20504;DHT22;10410;51.046;6.980;2024-03-23T23:11:08;4.90;99.90
20504;DHT22;10410;51.046;6.980;2024-03-23T23:18:08;4.90;99.90
20504;DHT22;10410;51.046;6.980;2024-03-23T23:25:09;4.90;99.90
20504;DHT22;10410;51.046;6.980;2024-03-23T23:32:08;4.90;99.90
20504;DHT22;10410;51.046;6.980;2024-03-23T23:39:08;4.90;99.90
20504;DHT22;10410;51.046;6.980;2024-03-23T23:46:07;4.90;99.90
20504;DHT22;10410;51.046;6.980;2024-03-23T23:53:07;4.90;99.90
